Palisades, WA (98845)

6:55 AM PDT on August 24, 2016 (GMT -0700)
West Hills | | Change Station

Elev 1506 ft 47.33 °N, 119.56 °W | Updated 6 minutes ago

Clear
Clear
67.1 °F
Feels Like 67.1 °F
N
7.3
Wind Variable Wind from WSW

Today
High -- | Low -- °F
--% Chance of Precip.
Yesterday
High -- | Low -- °F
Precip. -- in
Pressure 30.17 in
Visibility 10.0 miles
Clouds Clear
Dew Point 42 °F
Humidity 40%
Rainfall 0.00 in
Snow Depth Not available.
6:07 AM 7:53 PM
Waning Gibbous, 57% visible
METAR KEPH 241353Z AUTO 02007KT 10SM CLR 19/05 A3019 RMK AO2 SLP215 T01890050
Pressure 30.17 in
Visibility 10.0 miles
Clouds Clear
Dew Point 42 °F
Humidity 40%
Rainfall 0.00 in
Snow Depth Not available.
6:07 AM 7:53 PM
Waning Gibbous, 57% visible
METAR KEPH 241353Z AUTO 02007KT 10SM CLR 19/05 A3019 RMK AO2 SLP215 T01890050

10-Day Weather Forecast

Almanac

Astronomy

Aug. 24, 2016 Rise Set
Actual Time
Civil Twilight
Nautical Twilight
Astronomical Twilight
Moon
Length of Visible Light
Length of Day
Tomorrow will be .
, % of the Moon is Illuminated

Today's Extremes

State Highs State Lows

Community

WunderPhotos

Upload Photos

1,934,598 photos uploaded!

WunderBlog® & News

Nearby

Air Quality

  Air Quality AQ Index Pollutant
Not available.

Snow Depth

Station Depth Elevation

Earthquake Activity

City Distance Mag. Time & Date
Minimum magnitude displayed is 2.5.

Coastal Water Temperatures

Place Temperature

Stations

Nearby Weather Stations

Station Location Temp. Windchill Dew Point Humidity Wind Precip. Elev Updated Type
                   

Watches & Warnings

There are currently no watches in effect.